首页
METAR-TAF:

METAR-TAF

机场 :

Fort McPherson, 西北特區, 加拿大

纬度: 67-24N, 经度: 134-51W, 海拔: 43米

当前天气观测

该预报发布于19分钟前的21:00 UTC
风速5节,风向
温度 -29°C
湿度 75%
气压 1024 hPa
能見度: 56.3公里
天空无云

METAR: CZFM 112100Z 17005KT 35SM SKC M29/M32 A3025 RMK SLP250

时间: 14:19 (21:19 UTC)

预报

该预报发布于2小时和41分钟前的18:38 UTC
预报有效从11日的 19点(UTC)到 11日的 24点(UTC)
风速5节,风向东南
能見度: 10公里
天空无云

TAF: CZFM 111838Z 1119/1124 14005KT P6SM SKC RMK NXT FCST WILL BE ISSUED AT 121545Z

超过4000个机场的气象观测和天气预报(METAR&TAF报告)。

可查询的气象台以黄色和红色小点在地图上表示。

将鼠标移到小点上方,可查看气象台名称。

然后点击查看天气观测和预报。

如需切换地图:点击带黑十字的绿色按钮放大地图;点击带横线的绿色按钮缩小地图;或者点击绿色箭头查看邻近地区的地图。


METAR-TAF: